createdAt,value
2022-12-31T06:44:22.618Z,255.63
2022-12-31T06:49:17.932Z,273.97
2022-12-31T06:51:46.291Z,244.97
2022-12-31T06:54:13.744Z,248.40
2022-12-31T06:56:41.376Z,234.97
2022-12-31T06:59:24.394Z,219.43
2022-12-31T07:01:57.333Z,202.50
2022-12-31T07:04:45.150Z,177.57
2022-12-31T07:07:26.485Z,219.30
2022-12-31T07:10:08.328Z,196.33
2022-12-31T07:12:44.028Z,197.80
2022-12-31T07:15:25.771Z,183.40
2022-12-31T07:18:14.086Z,182.97
2022-12-31T07:20:42.076Z,201.00
2022-12-31T07:23:09.429Z,210.20
2022-12-31T07:25:41.266Z,210.50
2022-12-31T07:28:18.324Z,189.67
2022-12-31T07:30:55.820Z,160.70
2022-12-31T07:33:23.260Z,155.80
2022-12-31T07:35:50.093Z,148.77
2022-12-31T07:38:37.570Z,126.67
2022-12-31T07:41:42.879Z,137.57
2022-12-31T07:44:10.046Z,121.77
2022-12-31T07:47:00.964Z,117.27
2022-12-31T07:49:30.309Z,126.70
2022-12-31T07:51:57.381Z,127.30
2022-12-31T07:54:24.359Z,130.63
2022-12-31T07:56:52.139Z,121.90
2022-12-31T07:59:46.831Z,113.37
2022-12-31T08:02:40.119Z,97.25
2022-12-31T08:05:21.872Z,89.20
2022-12-31T08:08:08.820Z,88.07
2022-12-31T08:11:01.678Z,74.93
2022-12-31T08:13:29.334Z,69.82
2022-12-31T08:15:56.691Z,71.25
2022-12-31T08:18:24.068Z,79.85
2022-12-31T08:21:34.817Z,68.50
2022-12-31T08:24:40.870Z,63.03
2022-12-31T08:27:20.699Z,55.83
2022-12-31T08:29:58.751Z,53.10
2022-12-31T08:32:41.568Z,51.75
2022-12-31T08:35:29.097Z,56.08
2022-12-31T08:38:18.758Z,58.75
2022-12-31T08:41:00.985Z,60.70
2022-12-31T08:43:54.092Z,53.72
2022-12-31T08:46:31.662Z,53.10
2022-12-31T08:48:58.864Z,54.13
2022-12-31T08:51:27.234Z,50.72
2022-12-31T08:53:55.551Z,51.88
2022-12-31T08:56:50.658Z,49.63
2022-12-31T08:59:39.920Z,55.00
2022-12-31T09:02:34.816Z,52.20
2022-12-31T09:05:13.453Z,51.55
2022-12-31T09:07:55.148Z,55.40
2022-12-31T09:10:35.647Z,49.70
2022-12-31T09:13:05.540Z,48.95
2022-12-31T09:15:40.934Z,43.50
2022-12-31T09:18:10.090Z,38.95
2022-12-31T09:20:45.215Z,41.78
2022-12-31T09:23:13.660Z,43.60
2022-12-31T09:26:01.040Z,43.03
2022-12-31T09:28:44.709Z,45.75
2022-12-31T09:31:37.315Z,47.55
2022-12-31T09:34:13.572Z,44.00
2022-12-31T09:36:47.000Z,42.30
2022-12-31T09:39:43.309Z,47.95
2022-12-31T09:42:22.865Z,47.95
2022-12-31T09:45:17.584Z,47.47
2022-12-31T09:48:24.110Z,44.90
2022-12-31T09:51:08.926Z,42.45
2022-12-31T09:53:47.464Z,56.53
2022-12-31T09:56:27.354Z,55.35
2022-12-31T09:58:57.009Z,57.97
2022-12-31T10:01:42.792Z,60.17
2022-12-31T10:04:09.997Z,63.20
2022-12-31T10:06:49.326Z,62.72
2022-12-31T10:12:32.711Z,64.18
2022-12-31T10:15:21.335Z,51.17
2022-12-31T10:18:25.795Z,53.97
2022-12-31T10:21:21.432Z,49.42
2022-12-31T10:24:22.552Z,46.63
2022-12-31T10:27:09.470Z,44.42
2022-12-31T10:29:59.483Z,47.92
2022-12-31T10:32:41.137Z,43.65
2022-12-31T10:35:29.940Z,54.75
2022-12-31T10:38:09.268Z,44.40
2022-12-31T10:40:57.967Z,46.47
2022-12-31T10:43:54.840Z,45.80
2022-12-31T10:46:58.706Z,42.30
2022-12-31T10:49:45.530Z,43.05
2022-12-31T10:52:38.159Z,50.17
2022-12-31T10:55:26.940Z,46.42
2022-12-31T10:58:02.030Z,47.72
2022-12-31T11:01:16.185Z,46.25
2022-12-31T11:04:09.257Z,47.05
2022-12-31T11:07:20.380Z,48.00
2022-12-31T11:10:25.155Z,49.17
2022-12-31T11:13:22.948Z,41.20
2022-12-31T11:16:13.549Z,39.70
2022-12-31T11:18:48.192Z,38.75
2022-12-31T11:21:28.261Z,39.35
2022-12-31T11:24:19.433Z,42.58
2022-12-31T11:27:17.339Z,46.85
2022-12-31T11:29:44.594Z,45.73
2022-12-31T11:32:28.477Z,43.80
2022-12-31T11:35:15.107Z,41.63
2022-12-31T11:37:50.968Z,40.42
2022-12-31T11:40:42.845Z,45.40
2022-12-31T11:43:35.948Z,43.00
2022-12-31T11:46:19.271Z,41.92
2022-12-31T11:48:58.697Z,50.45
2022-12-31T11:51:50.011Z,45.33
2022-12-31T11:54:44.969Z,41.60
2022-12-31T11:57:30.144Z,41.70
2022-12-31T12:00:00.875Z,41.45
2022-12-31T12:02:36.285Z,46.70
2022-12-31T12:05:10.703Z,43.60
2022-12-31T12:07:38.181Z,47.97
2022-12-31T12:10:23.660Z,46.35
2022-12-31T12:12:52.376Z,47.70
2022-12-31T12:15:24.794Z,48.35
2022-12-31T12:17:59.782Z,54.35
2022-12-31T12:20:33.047Z,42.35
2022-12-31T12:23:01.657Z,46.13
2022-12-31T12:25:39.556Z,43.15
2022-12-31T12:28:18.772Z,41.45
2022-12-31T12:30:54.902Z,40.92
2022-12-31T12:33:21.971Z,42.40
2022-12-31T12:35:49.028Z,44.03
2022-12-31T12:38:19.632Z,38.20
2022-12-31T12:40:59.145Z,37.03
2022-12-31T12:43:29.019Z,39.72
2022-12-31T12:46:03.725Z,38.55
2022-12-31T12:48:39.123Z,37.13
2022-12-31T12:51:30.822Z,35.15
2022-12-31T12:54:08.264Z,37.80
2022-12-31T12:57:05.767Z,38.03
2022-12-31T13:00:17.244Z,36.58
2022-12-31T13:03:29.019Z,33.75
2022-12-31T13:06:02.018Z,39.80
2022-12-31T13:08:59.345Z,34.75
2022-12-31T13:12:07.702Z,36.17
2022-12-31T13:14:43.946Z,39.25
2022-12-31T13:17:49.769Z,32.50
2022-12-31T13:20:35.486Z,36.38
2022-12-31T13:23:05.945Z,34.50
2022-12-31T13:25:38.714Z,35.33
2022-12-31T13:28:12.189Z,36.97
2022-12-31T13:30:43.299Z,36.85
2022-12-31T13:33:37.689Z,36.53
2022-12-31T13:36:20.734Z,31.25
2022-12-31T13:38:50.308Z,37.60
2022-12-31T13:41:22.909Z,32.25
2022-12-31T13:43:51.160Z,29.65
2022-12-31T13:46:28.421Z,29.20
2022-12-31T13:49:01.867Z,27.73
2022-12-31T13:51:44.671Z,25.70
2022-12-31T13:54:11.580Z,26.52
2022-12-31T13:56:40.800Z,28.13
2022-12-31T13:59:17.598Z,33.13
2022-12-31T14:01:53.543Z,33.15
2022-12-31T14:04:59.110Z,32.28
2022-12-31T14:07:49.971Z,36.80
2022-12-31T14:10:23.536Z,32.20
2022-12-31T14:13:16.529Z,39.75
2022-12-31T14:16:02.029Z,39.80
2022-12-31T14:18:49.801Z,43.92
2022-12-31T14:22:00.279Z,42.95
2022-12-31T14:24:46.864Z,43.42
2022-12-31T14:27:29.321Z,41.72
2022-12-31T14:30:01.742Z,42.22
2022-12-31T14:32:46.504Z,42.47
2022-12-31T14:35:34.556Z,47.15
2022-12-31T14:38:19.978Z,42.53
2022-12-31T14:41:04.996Z,54.42
2022-12-31T14:44:00.316Z,40.85
2022-12-31T14:46:38.996Z,47.47
2022-12-31T14:49:30.626Z,41.50
2022-12-31T14:52:21.007Z,44.25
2022-12-31T14:54:58.779Z,43.10
2022-12-31T14:57:47.473Z,43.20
2022-12-31T15:00:50.792Z,41.47
2022-12-31T15:03:17.705Z,42.30
2022-12-31T15:06:00.615Z,36.88
2022-12-31T15:08:27.435Z,34.65
2022-12-31T15:10:57.309Z,37.97
2022-12-31T15:13:40.112Z,38.40
2022-12-31T15:16:25.746Z,35.95
2022-12-31T15:19:25.691Z,41.05
2022-12-31T15:21:58.665Z,44.22
2022-12-31T15:24:27.846Z,85.63
2022-12-31T15:27:06.908Z,43.92
2022-12-31T15:29:42.056Z,35.42
2022-12-31T15:32:20.736Z,37.65
2022-12-31T15:34:47.769Z,37.28
2022-12-31T15:37:35.407Z,37.33
2022-12-31T15:40:20.800Z,38.08
2022-12-31T15:43:00.236Z,37.70
2022-12-31T15:48:06.852Z,31.03
2022-12-31T15:50:37.575Z,33.23
2022-12-31T15:53:07.193Z,31.97
2022-12-31T15:55:48.833Z,33.87
2022-12-31T15:58:24.721Z,32.03
2022-12-31T16:00:59.360Z,30.80
2022-12-31T16:03:29.309Z,28.63
2022-12-31T16:06:08.586Z,29.73
2022-12-31T16:08:37.411Z,28.90
2022-12-31T16:11:06.555Z,28.57
2022-12-31T16:13:37.290Z,29.10
2022-12-31T16:16:19.993Z,27.33
2022-12-31T16:21:38.670Z,30.40
2022-12-31T16:24:29.250Z,34.20
2022-12-31T16:27:01.386Z,31.30
2022-12-31T16:29:29.081Z,52.27
2022-12-31T16:31:56.623Z,42.90
2022-12-31T16:34:27.823Z,42.63
2022-12-31T16:36:56.535Z,53.22
2022-12-31T16:39:27.875Z,53.17
2022-12-31T16:42:13.944Z,50.20
2022-12-31T16:44:41.728Z,58.27
2022-12-31T16:47:15.493Z,53.03
2022-12-31T16:49:43.178Z,52.63
2022-12-31T16:52:39.873Z,50.47
2022-12-31T16:55:30.841Z,80.40
2022-12-31T16:58:11.398Z,82.87
2022-12-31T17:00:38.595Z,70.60
2022-12-31T17:03:09.070Z,82.00
2022-12-31T17:05:59.732Z,91.60
2022-12-31T17:09:09.789Z,93.93
2022-12-31T17:11:56.589Z,109.20
2022-12-31T17:14:28.876Z,130.97
2022-12-31T17:17:06.334Z,155.70
2022-12-31T17:19:40.673Z,210.73
2022-12-31T17:22:32.785Z,129.23
2022-12-31T17:25:18.032Z,150.73
2022-12-31T17:27:59.766Z,164.00
2022-12-31T17:30:35.633Z,190.27
2022-12-31T17:33:02.576Z,173.87
2022-12-31T17:35:33.850Z,199.47
2022-12-31T17:38:22.595Z,225.23
2022-12-31T17:41:14.238Z,218.90
2022-12-31T17:43:42.730Z,211.40
2022-12-31T17:46:16.866Z,237.17
2022-12-31T17:48:46.459Z,208.77
2022-12-31T17:51:13.467Z,218.73
2022-12-31T17:53:40.479Z,195.20
2022-12-31T17:56:16.840Z,215.50
2022-12-31T17:58:50.100Z,116.07
2022-12-31T18:01:20.713Z,178.70
2022-12-31T18:03:48.593Z,151.60
2022-12-31T18:06:17.186Z,144.87
2022-12-31T18:08:44.364Z,108.15
2022-12-31T18:11:21.083Z,101.80
2022-12-31T18:13:48.673Z,85.93
2022-12-31T18:16:15.833Z,76.10
2022-12-31T18:18:43.940Z,81.57
2022-12-31T18:21:22.411Z,63.83
2022-12-31T18:23:50.145Z,66.55
2022-12-31T18:26:20.349Z,94.43
2022-12-31T18:28:48.251Z,116.63
2022-12-31T18:31:35.378Z,100.63
2022-12-31T18:34:02.249Z,102.57
2022-12-31T18:36:29.356Z,100.60
2022-12-31T18:38:56.472Z,107.13
2022-12-31T18:41:27.143Z,121.90
2022-12-31T18:43:55.403Z,143.17
2022-12-31T18:46:24.747Z,145.33
2022-12-31T18:48:51.901Z,194.95
2022-12-31T18:51:31.126Z,237.87
2022-12-31T18:54:01.193Z,236.33
2022-12-31T18:56:29.036Z,249.17
2022-12-31T18:58:56.032Z,261.70
2022-12-31T19:01:34.975Z,149.63
2022-12-31T19:04:26.597Z,157.07
2022-12-31T19:06:54.388Z,190.23
2022-12-31T19:09:44.845Z,156.97
2022-12-31T19:12:13.350Z,151.03
2022-12-31T19:14:40.702Z,170.73
2022-12-31T19:19:34.982Z,212.13
2022-12-31T19:22:03.049Z,241.48
2022-12-31T19:24:30.314Z,252.27
2022-12-31T19:26:57.274Z,261.40
2022-12-31T19:29:26.645Z,168.73
2022-12-31T19:31:54.273Z,169.30
2022-12-31T19:34:21.802Z,178.33
2022-12-31T19:36:48.789Z,167.83
2022-12-31T19:39:21.054Z,215.07
2022-12-31T19:41:54.747Z,263.83
2022-12-31T19:44:25.523Z,264.43
2022-12-31T19:46:52.592Z,285.23
2022-12-31T19:49:19.493Z,276.30
2022-12-31T19:51:46.617Z,282.80
2022-12-31T19:54:13.915Z,278.97
2022-12-31T19:56:41.254Z,270.77
2022-12-31T19:59:10.745Z,279.87
2022-12-31T20:01:39.278Z,274.47
2022-12-31T20:04:06.593Z,271.70
2022-12-31T20:06:33.574Z,278.90
2022-12-31T20:09:00.723Z,284.37
2022-12-31T20:11:27.830Z,253.23
2022-12-31T20:13:55.159Z,246.17
2022-12-31T20:16:24.735Z,244.17
2022-12-31T20:18:51.771Z,262.50
2022-12-31T20:21:23.155Z,311.97
2022-12-31T20:23:53.685Z,291.07
2022-12-31T20:26:23.048Z,323.60
2022-12-31T20:28:51.033Z,274.15
2022-12-31T20:31:21.509Z,274.20
2022-12-31T20:33:48.638Z,280.50
2022-12-31T20:36:17.620Z,286.17
2022-12-31T20:38:45.039Z,244.77
2022-12-31T20:41:17.883Z,261.60
2022-12-31T20:43:45.682Z,267.80
2022-12-31T20:46:22.835Z,272.80
2022-12-31T20:48:52.023Z,262.70
2022-12-31T20:51:20.993Z,245.30
2022-12-31T20:53:50.245Z,239.02
2022-12-31T20:56:18.190Z,265.77
2022-12-31T20:58:45.406Z,257.57
2022-12-31T21:01:13.160Z,271.47
2022-12-31T21:06:30.900Z,206.13
2022-12-31T21:09:00.144Z,243.70
2022-12-31T21:11:46.423Z,257.65
2022-12-31T21:14:13.527Z,273.77
2022-12-31T21:16:40.545Z,237.10
2022-12-31T21:19:07.726Z,278.13
2022-12-31T21:21:34.756Z,263.53
2022-12-31T21:24:01.826Z,276.77
2022-12-31T21:26:29.781Z,263.80
2022-12-31T21:28:56.809Z,264.70
2022-12-31T21:31:23.844Z,270.33
2022-12-31T21:33:50.817Z,268.77
2022-12-31T21:36:17.940Z,263.83
2022-12-31T21:38:45.197Z,330.20
2022-12-31T21:41:34.142Z,321.77
2022-12-31T21:44:02.832Z,309.37
2022-12-31T21:46:30.122Z,276.03
2022-12-31T21:49:00.064Z,277.97
2022-12-31T21:51:28.585Z,427.37
2022-12-31T21:53:56.021Z,446.83
2022-12-31T21:56:23.061Z,334.40
2022-12-31T21:59:16.815Z,342.97
2022-12-31T22:02:03.219Z,389.80
2022-12-31T22:07:17.870Z,507.80
2022-12-31T22:09:44.886Z,394.20
2022-12-31T22:12:11.843Z,462.17
2022-12-31T22:14:38.740Z,380.97
2022-12-31T22:17:05.679Z,317.17
2022-12-31T22:19:39.274Z,427.40
2022-12-31T22:22:19.626Z,575.53
2022-12-31T22:24:46.521Z,650.27
2022-12-31T22:27:28.571Z,530.30
2022-12-31T22:29:56.509Z,546.00
2022-12-31T22:32:24.513Z,541.03
2022-12-31T22:34:51.434Z,552.07
2022-12-31T22:37:46.439Z,518.90
2022-12-31T22:40:06.346Z,542.37
2022-12-31T22:42:33.224Z,499.07
2022-12-31T22:45:00.132Z,477.13
2022-12-31T22:47:27.101Z,516.63
2022-12-31T22:49:54.029Z,463.53
2022-12-31T22:52:21.676Z,462.87
2022-12-31T22:54:48.664Z,436.63
2022-12-31T22:57:20.011Z,457.07
2022-12-31T22:59:47.398Z,465.70
2022-12-31T23:02:14.415Z,489.53
2022-12-31T23:04:41.370Z,484.07
2022-12-31T23:07:08.285Z,481.20
2022-12-31T23:09:53.717Z,475.97
2022-12-31T23:12:20.634Z,423.77
2022-12-31T23:15:06.355Z,381.97
2022-12-31T23:17:51.774Z,366.47
2022-12-31T23:20:40.450Z,380.33
2022-12-31T23:23:15.892Z,435.63
2022-12-31T23:25:50.038Z,428.40
2022-12-31T23:28:23.415Z,429.53
2022-12-31T23:30:53.805Z,443.00
2022-12-31T23:33:23.294Z,450.60
2022-12-31T23:38:18.713Z,435.70
2022-12-31T23:40:47.384Z,456.23
2022-12-31T23:43:22.547Z,460.73
2022-12-31T23:45:53.209Z,453.60
2022-12-31T23:48:20.189Z,464.10
2022-12-31T23:50:53.441Z,470.57
2022-12-31T23:53:24.697Z,430.60
2022-12-31T23:55:52.537Z,461.67
2022-12-31T23:58:22.129Z,461.50
